createdAt,value
2022-11-16T00:01:47.065Z,13.96
2022-11-16T00:04:15.242Z,13.94
2022-11-16T00:06:43.517Z,13.93
2022-11-16T00:09:48.792Z,13.97
2022-11-16T00:12:17.063Z,13.95
2022-11-16T00:14:45.309Z,13.95
2022-11-16T00:17:13.559Z,13.94
2022-11-16T00:20:18.865Z,13.93
2022-11-16T00:22:47.103Z,13.93
2022-11-16T00:25:15.388Z,13.93
2022-11-16T00:27:43.624Z,13.91
2022-11-16T00:30:11.849Z,13.91
2022-11-16T00:33:17.193Z,13.91
2022-11-16T00:35:45.444Z,13.91
2022-11-16T00:38:13.682Z,13.91
2022-11-16T00:41:10.760Z,13.91
2022-11-16T00:44:16.074Z,13.9
2022-11-16T00:46:44.340Z,13.89
2022-11-16T00:49:12.571Z,13.83
2022-11-16T00:52:17.870Z,13.9
2022-11-16T00:54:46.124Z,13.89
2022-11-16T00:57:14.375Z,13.9
2022-11-16T00:59:43.020Z,13.91
2022-11-16T01:02:10.846Z,13.91
2022-11-16T01:05:16.163Z,13.92
2022-11-16T01:07:44.442Z,13.97
2022-11-16T01:10:49.733Z,13.9
2022-11-16T01:13:18.002Z,13.9
2022-11-16T01:15:46.248Z,13.9
2022-11-16T01:18:14.464Z,13.87
2022-11-16T01:21:19.772Z,13.9
2022-11-16T01:23:48.030Z,13.9
2022-11-16T01:26:16.274Z,13.9
2022-11-16T01:28:44.505Z,13.89
2022-11-16T01:31:12.801Z,13.88
2022-11-16T01:34:55.192Z,13.92
2022-11-16T01:38:00.463Z,13.91
2022-11-16T01:40:28.710Z,13.9
2022-11-16T01:42:48.763Z,13.91
2022-11-16T01:45:16.983Z,13.86
2022-11-16T01:47:45.277Z,13.86
2022-11-16T01:50:13.500Z,13.91
2022-11-16T01:53:18.799Z,13.89
2022-11-16T01:55:47.045Z,13.9
2022-11-16T01:58:15.303Z,13.9
2022-11-16T02:00:43.578Z,13.89
2022-11-16T02:03:11.796Z,13.9
2022-11-16T02:06:17.095Z,13.9
2022-11-16T02:08:45.353Z,13.88
2022-11-16T02:11:13.631Z,13.89
2022-11-16T02:14:18.936Z,13.89
2022-11-16T02:16:47.198Z,13.89
2022-11-16T02:19:15.455Z,13.86
2022-11-16T02:21:43.663Z,13.86
2022-11-16T02:24:11.889Z,13.84
2022-11-16T02:27:17.212Z,13.82
2022-11-16T02:29:45.512Z,13.83
2022-11-16T02:32:13.740Z,13.79
2022-11-16T02:35:19.034Z,13.81
2022-11-16T02:37:47.262Z,13.82
2022-11-16T02:40:15.496Z,13.8
2022-11-16T02:42:35.581Z,13.81
2022-11-16T02:45:03.832Z,13.8
2022-11-16T02:48:09.118Z,13.81
2022-11-16T02:51:14.439Z,13.79
2022-11-16T02:53:42.707Z,13.78
2022-11-16T02:56:10.925Z,13.79
2022-11-16T02:59:17.722Z,13.79
2022-11-16T03:01:44.465Z,13.92
2022-11-16T03:04:12.778Z,13.78
2022-11-16T03:07:55.144Z,13.81
2022-11-16T03:11:00.388Z,13.82
2022-11-16T03:14:05.717Z,13.79
2022-11-16T03:17:11.032Z,13.81
2022-11-16T03:20:16.361Z,13.79
2022-11-16T03:22:44.597Z,13.77
2022-11-16T03:25:12.838Z,13.77
2022-11-16T03:28:18.157Z,13.77
2022-11-16T03:30:46.426Z,13.76
2022-11-16T03:33:14.634Z,13.78
2022-11-16T03:35:42.921Z,13.78
2022-11-16T03:38:11.639Z,13.78
2022-11-16T03:40:39.385Z,13.78
2022-11-16T03:42:59.451Z,13.79
2022-11-16T03:46:04.782Z,13.77
2022-11-16T03:49:10.111Z,13.78
2022-11-16T03:52:15.382Z,13.77
2022-11-16T03:54:43.597Z,13.76
2022-11-16T03:57:11.934Z,13.78
2022-11-16T04:00:17.170Z,13.76
2022-11-16T04:02:45.411Z,13.76
2022-11-16T04:05:13.650Z,13.77
2022-11-16T04:08:19.019Z,13.77
2022-11-16T04:10:47.218Z,13.76
2022-11-16T04:13:15.469Z,13.74
2022-11-16T04:15:43.700Z,13.74
2022-11-16T04:18:11.981Z,13.74
2022-11-16T04:21:17.238Z,13.74
2022-11-16T04:23:45.504Z,13.73
2022-11-16T04:26:13.802Z,13.72
2022-11-16T04:29:19.101Z,13.72
2022-11-16T04:31:47.339Z,13.72
2022-11-16T04:34:15.561Z,13.72
2022-11-16T04:36:43.818Z,13.72
2022-11-16T04:39:12.057Z,13.73
2022-11-16T04:42:17.388Z,13.71
2022-11-16T04:44:37.500Z,13.7
2022-11-16T04:47:05.705Z,13.68
2022-11-16T04:50:10.960Z,13.73
2022-11-16T04:53:16.293Z,13.73
2022-11-16T04:55:44.528Z,13.74
2022-11-16T04:58:12.806Z,13.73
2022-11-16T05:01:55.229Z,13.75
2022-11-16T05:05:00.486Z,13.73
2022-11-16T05:08:05.795Z,13.75
2022-11-16T05:11:11.064Z,13.74
2022-11-16T05:14:16.454Z,13.75
2022-11-16T05:16:44.634Z,13.74
2022-11-16T05:19:12.914Z,13.73
2022-11-16T05:22:18.231Z,13.72
2022-11-16T05:24:46.491Z,13.73
2022-11-16T05:27:14.714Z,13.7
2022-11-16T05:29:42.961Z,13.7
2022-11-16T05:32:11.177Z,13.63
2022-11-16T05:35:16.477Z,13.64
2022-11-16T05:37:44.747Z,13.63
2022-11-16T05:40:13.024Z,13.61
2022-11-16T05:42:33.098Z,13.62
2022-11-16T05:45:01.309Z,13.63
2022-11-16T05:48:06.635Z,13.64
2022-11-16T05:51:11.909Z,13.65
2022-11-16T05:54:17.282Z,13.68
2022-11-16T05:56:45.516Z,13.68
2022-11-16T05:59:16.401Z,13.7
2022-11-16T06:02:19.049Z,13.71
2022-11-16T06:04:47.318Z,13.73
2022-11-16T06:07:15.558Z,13.73
2022-11-16T06:09:43.766Z,13.73
2022-11-16T06:12:12.022Z,13.73
2022-11-16T06:15:17.380Z,13.7
2022-11-16T06:17:45.609Z,13.69
2022-11-16T06:20:13.827Z,13.69
2022-11-16T06:23:19.195Z,13.67
2022-11-16T06:25:47.386Z,13.66
2022-11-16T06:28:15.614Z,13.62
2022-11-16T06:30:43.910Z,13.61
2022-11-16T06:33:12.173Z,13.57
2022-11-16T06:36:17.453Z,13.55
2022-11-16T06:38:45.678Z,13.54
2022-11-16T06:41:13.933Z,13.54
2022-11-16T06:44:11.038Z,13.52
2022-11-16T06:47:16.374Z,13.5
2022-11-16T06:49:44.573Z,13.49
2022-11-16T06:52:12.869Z,13.48
2022-11-16T06:55:18.251Z,13.44
2022-11-16T06:57:46.447Z,13.43
2022-11-16T07:00:14.652Z,13.43
2022-11-16T07:03:20.090Z,13.42
2022-11-16T07:05:48.260Z,13.42
2022-11-16T07:08:16.525Z,13.41
2022-11-16T07:10:44.723Z,13.42
2022-11-16T07:13:12.969Z,13.4
2022-11-16T07:16:18.275Z,13.41
2022-11-16T07:18:46.540Z,13.41
2022-11-16T07:21:14.755Z,13.4
2022-11-16T07:23:43.017Z,13.4
2022-11-16T07:26:11.298Z,13.4
2022-11-16T07:29:16.610Z,13.34
2022-11-16T07:31:44.880Z,13.32
2022-11-16T07:34:13.073Z,13.33
2022-11-16T07:37:55.469Z,13.32
2022-11-16T07:41:00.759Z,13.32
2022-11-16T07:50:37.403Z,13.4
2022-11-16T08:06:41.004Z,13.42
2022-11-16T08:12:14.520Z,13.41
2022-11-16T08:15:19.867Z,13.41
2022-11-16T08:17:48.112Z,13.42
2022-11-16T08:20:16.350Z,13.41
2022-11-16T08:25:12.852Z,13.45
2022-11-16T08:27:41.066Z,13.49
2022-11-16T08:32:37.593Z,13.49
2022-11-16T08:37:34.113Z,13.45
2022-11-16T08:40:02.347Z,13.48
2022-11-16T08:43:07.639Z,13.48
2022-11-16T08:46:50.002Z,13.5
2022-11-16T08:53:37.720Z,13.54
2022-11-16T08:58:34.563Z,13.54
2022-11-16T09:02:16.632Z,13.53
2022-11-16T09:04:37.149Z,13.5
2022-11-16T09:07:04.949Z,13.51
2022-11-16T09:10:10.140Z,13.56
2022-11-16T09:13:15.516Z,13.58
2022-11-16T09:16:20.894Z,13.59
2022-11-16T09:18:49.036Z,13.6
2022-11-16T09:21:17.284Z,13.59
2022-11-16T09:23:45.576Z,13.61
2022-11-16T09:26:13.810Z,13.63
2022-11-16T09:29:19.080Z,13.6
2022-11-16T09:31:47.389Z,13.61
2022-11-16T09:34:15.556Z,13.57
2022-11-16T09:36:43.814Z,13.56
2022-11-16T09:41:40.295Z,13.57
2022-11-16T09:46:36.864Z,13.59
2022-11-16T09:50:56.268Z,13.59
2022-11-16T09:54:01.561Z,13.63
2022-11-16T09:57:11.059Z,13.65
2022-11-16T10:00:49.280Z,13.67
2022-11-16T10:04:31.586Z,13.64
2022-11-16T10:10:42.226Z,13.67
2022-11-16T10:14:24.557Z,13.67
2022-11-16T10:16:44.652Z,13.68
2022-11-16T10:19:12.906Z,13.72
2022-11-16T10:26:37.652Z,13.84
2022-11-16T10:31:34.149Z,13.9
2022-11-16T10:35:16.514Z,13.92
2022-11-16T10:37:44.727Z,13.91
2022-11-16T10:40:12.982Z,13.94
2022-11-16T10:42:41.264Z,13.96
2022-11-16T10:45:09.489Z,13.98
2022-11-16T10:48:14.785Z,14.01
2022-11-16T10:51:57.193Z,14.1
2022-11-16T10:55:39.561Z,14.23
2022-11-16T11:00:36.159Z,14.5
2022-11-16T11:04:55.485Z,14.75
2022-11-16T11:09:35.622Z,14.95
2022-11-16T11:13:17.954Z,15.33
2022-11-16T11:15:46.180Z,15.38
2022-11-16T11:18:14.430Z,15.54
2022-11-16T11:21:19.761Z,15.66
2022-11-16T11:23:48.030Z,15.7
2022-11-16T11:26:16.229Z,15.79
2022-11-16T11:29:58.673Z,15.77
2022-11-16T11:33:04.052Z,15.91
2022-11-16T11:38:37.469Z,16.37
2022-11-16T11:44:11.076Z,16.65
2022-11-16T11:49:07.525Z,16.84
2022-11-16T11:52:12.878Z,16.9
2022-11-16T11:54:45.606Z,17.09
2022-11-16T11:59:00.500Z,17
2022-11-16T12:02:05.842Z,17.18
2022-11-16T12:05:02.986Z,17.16
2022-11-16T12:08:45.307Z,17.15
2022-11-16T12:11:13.596Z,17.39
2022-11-16T12:13:41.831Z,17.54
2022-11-16T12:18:38.310Z,17.91
2022-11-16T12:23:35.151Z,17.99
2022-11-16T12:26:03.081Z,18
2022-11-16T12:29:08.409Z,18
2022-11-16T12:32:13.683Z,18.04
2022-11-16T12:36:33.149Z,17.83
2022-11-16T12:41:29.618Z,17.65
2022-11-16T12:48:17.300Z,17.83
2022-11-16T12:50:45.548Z,17.82
2022-11-16T12:53:13.756Z,17.66
2022-11-16T12:56:19.110Z,17.64
2022-11-16T12:58:47.346Z,17.65
2022-11-16T13:01:15.686Z,17.65
2022-11-16T13:03:43.852Z,17.68
2022-11-16T13:06:03.889Z,17.79
2022-11-16T13:09:09.227Z,17.95
2022-11-16T13:11:37.432Z,18.01
2022-11-16T13:16:33.931Z,18.23
2022-11-16T13:22:44.580Z,18.2
2022-11-16T13:29:32.251Z,18.02
2022-11-16T13:34:28.767Z,18.04
2022-11-16T13:38:11.118Z,17.9
2022-11-16T13:41:16.419Z,17.74
2022-11-16T13:43:44.695Z,17.7
2022-11-16T13:46:22.454Z,17.54
2022-11-16T13:49:18.271Z,17.4
2022-11-16T13:56:05.904Z,17.12
2022-11-16T13:59:11.254Z,16.98
2022-11-16T14:02:16.543Z,16.92
2022-11-16T14:05:50.698Z,16.95
2022-11-16T14:08:19.000Z,17.14
2022-11-16T14:10:47.214Z,17.2
2022-11-16T14:17:34.872Z,17.76
2022-11-16T14:22:31.388Z,18.12
2022-11-16T14:26:50.796Z,17.36
2022-11-16T14:29:19.099Z,18.35
2022-11-16T14:31:47.301Z,18.39
2022-11-16T14:34:15.536Z,18.39
2022-11-16T14:36:43.853Z,18.4
2022-11-16T14:39:12.072Z,18.37
2022-11-16T14:42:17.348Z,18.41
2022-11-16T14:44:45.591Z,18.36
2022-11-16T14:47:13.856Z,18.2
2022-11-16T14:50:19.193Z,17.96
2022-11-16T14:52:47.398Z,17.87
2022-11-16T14:55:15.665Z,17.65
2022-11-16T14:57:43.901Z,17.62
2022-11-16T15:00:12.190Z,17.46
2022-11-16T15:03:17.530Z,17.34
2022-11-16T15:06:14.598Z,17.23
2022-11-16T15:09:19.891Z,17.11
2022-11-16T15:11:48.161Z,17.06
2022-11-16T15:14:16.375Z,16.9
2022-11-16T15:16:44.651Z,16.87
2022-11-16T15:19:12.883Z,16.79
2022-11-16T15:22:55.304Z,16.67
2022-11-16T15:26:00.550Z,16.6
2022-11-16T15:29:05.906Z,16.52
2022-11-16T15:32:11.218Z,16.44
2022-11-16T15:35:16.498Z,16.37
2022-11-16T15:37:44.766Z,16.36
2022-11-16T15:40:12.987Z,16.31
2022-11-16T15:43:18.352Z,16.25
2022-11-16T15:45:46.538Z,16.24
2022-11-16T15:48:14.824Z,16.16
2022-11-16T15:50:43.043Z,16.14
2022-11-16T15:53:11.313Z,16.11
2022-11-16T15:56:16.593Z,16.09
2022-11-16T15:58:44.869Z,16.06
2022-11-16T16:01:13.139Z,15.97
2022-11-16T16:04:18.414Z,15.9
2022-11-16T16:07:15.644Z,15.85
2022-11-16T16:09:43.762Z,15.83
2022-11-16T16:12:12.046Z,15.76
2022-11-16T16:15:17.316Z,15.73
2022-11-16T16:17:45.612Z,15.7
2022-11-16T16:20:13.790Z,15.67
2022-11-16T16:23:19.152Z,15.66
2022-11-16T16:25:50.461Z,15.65
2022-11-16T16:28:15.658Z,15.57
2022-11-16T16:30:43.913Z,15.57
2022-11-16T16:33:12.189Z,15.53
2022-11-16T16:36:17.440Z,15.48
2022-11-16T16:38:45.700Z,15.48
2022-11-16T16:41:13.929Z,15.48
2022-11-16T16:44:19.263Z,15.47
2022-11-16T16:46:47.482Z,15.45
2022-11-16T16:49:52.784Z,15.45
2022-11-16T16:52:58.134Z,15.45
2022-11-16T16:56:03.435Z,15.43
2022-11-16T16:59:45.878Z,15.39
2022-11-16T17:10:36.526Z,15.28
2022-11-16T17:13:04.791Z,15.39
2022-11-16T17:16:10.073Z,15.2
2022-11-16T17:19:15.406Z,15.18
2022-11-16T17:21:43.649Z,16.7
2022-11-16T17:24:48.947Z,15.09
2022-11-16T17:29:08.347Z,15.09
2022-11-16T17:34:41.960Z,15.1
2022-11-16T17:40:15.546Z,15.08
2022-11-16T17:42:43.759Z,15.09
2022-11-16T17:45:12.014Z,15.07
2022-11-16T17:48:17.269Z,15.04
2022-11-16T17:50:45.551Z,15.03
2022-11-16T17:53:13.795Z,14.98
2022-11-16T17:56:19.149Z,14.97
2022-11-16T17:58:47.330Z,14.97
2022-11-16T18:01:15.612Z,15
2022-11-16T18:03:43.860Z,14.99
2022-11-16T18:06:12.136Z,14.99
2022-11-16T18:09:13.326Z,14.95
2022-11-16T18:12:18.594Z,14.93
2022-11-16T18:15:00.102Z,14.93
2022-11-16T18:17:15.108Z,14.87
2022-11-16T18:19:43.387Z,14.85
2022-11-16T18:22:11.605Z,14.87
2022-11-16T18:25:16.930Z,14.91
2022-11-16T18:28:59.338Z,14.94
2022-11-16T18:32:04.576Z,14.96
2022-11-16T18:37:46.775Z,14.97
2022-11-16T18:40:15.083Z,14.94
2022-11-16T18:42:51.489Z,14.93
2022-11-16T18:46:42.089Z,14.92
2022-11-16T18:49:10.351Z,14.91
2022-11-16T18:53:00.933Z,14.89
2022-11-16T18:55:29.284Z,14.9
2022-11-16T18:57:57.467Z,14.88
2022-11-16T19:00:25.722Z,14.89
2022-11-16T19:02:53.999Z,14.89
2022-11-16T19:05:22.246Z,14.91
2022-11-16T19:07:50.544Z,14.91
2022-11-16T19:10:18.815Z,14.89
2022-11-16T19:12:47.094Z,14.89
2022-11-16T19:15:15.333Z,14.88
2022-11-16T19:25:08.411Z,14.85
2022-11-16T19:36:15.561Z,14.83
2022-11-16T19:41:12.116Z,14.84
2022-11-16T19:46:16.845Z,14.82
2022-11-16T19:56:18.192Z,14.81
2022-11-16T20:00:08.767Z,14.8
2022-11-16T20:06:19.365Z,14.74
2022-11-16T20:16:20.608Z,14.65
2022-11-16T20:21:08.970Z,14.75
2022-11-16T20:26:13.701Z,14.75
2022-11-16T20:31:10.207Z,14.73
2022-11-16T20:36:06.768Z,14.72
2022-11-16T20:42:17.412Z,14.71
2022-11-16T20:47:13.947Z,14.68
2022-11-16T20:52:18.703Z,14.67
2022-11-16T20:57:23.392Z,14.66
2022-11-16T21:01:14.074Z,14.69
2022-11-16T21:06:10.545Z,14.67
2022-11-16T21:17:17.768Z,14.66
2022-11-16T21:22:14.281Z,14.64
2022-11-16T21:25:40.264Z,14.62
2022-11-16T21:28:08.598Z,14.61
2022-11-16T21:31:50.957Z,14.61
2022-11-16T21:34:19.312Z,14.6
2022-11-16T21:36:55.677Z,14.6
2022-11-16T21:39:23.949Z,14.59
2022-11-16T21:41:52.219Z,14.59
2022-11-16T21:44:20.451Z,14.58
2022-11-16T21:46:48.765Z,14.57
2022-11-16T21:49:25.180Z,14.54
2022-11-16T21:59:18.291Z,14.56
2022-11-16T22:04:14.800Z,14.55
2022-11-16T22:09:11.305Z,14.53
2022-11-16T22:15:30.207Z,14.54
2022-11-16T22:17:58.477Z,14.53
2022-11-16T22:21:40.847Z,14.52
2022-11-16T22:25:31.451Z,14.51
2022-11-16T22:28:19.521Z,14.51
2022-11-16T22:31:42.115Z,14.52
2022-11-16T22:35:32.701Z,14.5
2022-11-16T22:38:00.972Z,14.5
2022-11-16T22:40:29.260Z,14.49
2022-11-16T22:42:57.529Z,14.49
2022-11-16T22:45:25.774Z,14.48
2022-11-16T22:47:54.971Z,14.47
2022-11-16T22:51:36.433Z,14.49
2022-11-16T22:56:16.580Z,14.48
2022-11-16T23:00:07.155Z,14.46
2022-11-16T23:11:14.374Z,14.43
2022-11-16T23:16:10.892Z,14.44
2022-11-16T23:21:07.461Z,14.43
2022-11-16T23:27:26.316Z,14.41
2022-11-16T23:31:08.720Z,14.36
2022-11-16T23:36:13.414Z,14.35
2022-11-16T23:41:09.976Z,14.35
2022-11-16T23:46:06.498Z,14.33
2022-11-16T23:52:17.184Z,14.3
2022-11-16T23:56:04.362Z,14.3
